Time;durP1;ratioP1;P1;durP2;ratioP2;P2;SDS_P1;SDS_P2;PMS_P1;PMS_P2;Temp;Humidity;BMP_temperature;BMP_pressure;BME280_temperature;BME280_humidity;BME280_pressure;Samples;Min_cycle;Max_cycle;Signal;HPM_P1;HPM_P2
2024/01/08 00:01:40;;;;;;;3.05;2.70;;;;;;;;;;5034265;28;20037;-62
2024/01/08 00:04:07;;;;;;;3.15;2.85;;;;;;;;;;5033272;28;20591;-62
2024/01/08 00:06:33;;;;;;;2.92;2.67;;;;;;;;;;5033816;28;20036;-62
2024/01/08 00:08:59;;;;;;;5.18;3.33;;;;;;;;;;5012570;28;20462;-62
2024/01/08 00:11:25;;;;;;;4.40;2.47;;;;;;;;;;5034582;28;20510;-62
2024/01/08 00:13:51;;;;;;;2.95;2.22;;;;;;;;;;5030322;28;20095;-62
2024/01/08 00:16:17;;;;;;;4.32;3.05;;;;;;;;;;5028340;28;20048;-61
2024/01/08 00:18:43;;;;;;;3.13;2.55;;;;;;;;;;5011274;28;20548;-62
2024/01/08 00:21:09;;;;;;;4.72;2.97;;;;;;;;;;5033987;28;20040;-62
2024/01/08 00:23:37;;;;;;;3.63;3.00;;;;;;;;;;5032989;28;20033;-62
2024/01/08 00:26:03;;;;;;;4.40;2.97;;;;;;;;;;5034173;28;20058;-62
2024/01/08 00:28:29;;;;;;;6.25;2.97;;;;;;;;;;5036727;28;20148;-62
2024/01/08 00:30:55;;;;;;;3.17;2.85;;;;;;;;;;5035328;28;20040;-62
2024/01/08 00:33:21;;;;;;;4.78;2.70;;;;;;;;;;5038278;28;20036;-62
2024/01/08 00:35:47;;;;;;;3.42;2.75;;;;;;;;;;5023925;28;20048;-62
2024/01/08 00:38:13;;;;;;;4.10;3.10;;;;;;;;;;5037245;28;20048;-62
2024/01/08 00:40:39;;;;;;;5.10;2.75;;;;;;;;;;5041823;28;20045;-61
2024/01/08 00:43:05;;;;;;;5.07;3.22;;;;;;;;;;5039944;28;20450;-62
2024/01/08 00:45:31;;;;;;;4.68;3.70;;;;;;;;;;5040641;28;20052;-62
2024/01/08 00:47:57;;;;;;;4.88;3.10;;;;;;;;;;5034779;28;20041;-62
2024/01/08 00:50:23;;;;;;;4.65;2.85;;;;;;;;;;5039289;28;20042;-62
2024/01/08 00:52:49;;;;;;;5.13;2.83;;;;;;;;;;5041310;28;20126;-62
2024/01/08 00:55:15;;;;;;;4.10;3.22;;;;;;;;;;5036106;28;20072;-62
2024/01/08 00:57:41;;;;;;;3.40;2.85;;;;;;;;;;5016152;28;20049;-62
2024/01/08 01:00:10;;;;;;;3.67;2.70;;;;;;;;;;5038701;28;20245;-62
2024/01/08 01:02:36;;;;;;;3.70;2.45;;;;;;;;;;5035721;28;20498;-62
2024/01/08 01:05:02;;;;;;;3.30;3.00;;;;;;;;;;5036598;28;20072;-61
2024/01/08 01:07:29;;;;;;;4.18;2.55;;;;;;;;;;5035815;28;20069;-61
2024/01/08 01:09:55;;;;;;;3.10;2.08;;;;;;;;;;5015875;28;20059;-61
2024/01/08 01:12:21;;;;;;;3.20;2.58;;;;;;;;;;5033216;28;20075;-61
2024/01/08 01:14:47;;;;;;;5.32;3.13;;;;;;;;;;5032409;28;20038;-62
2024/01/08 01:17:13;;;;;;;6.60;3.47;;;;;;;;;;5041890;28;20029;-62
2024/01/08 01:19:40;;;;;;;4.05;3.45;;;;;;;;;;5036510;28;20037;-62
2024/01/08 01:22:06;;;;;;;3.92;2.97;;;;;;;;;;5037336;28;20057;-62
2024/01/08 01:24:32;;;;;;;2.53;2.33;;;;;;;;;;5031551;28;20103;-62
2024/01/08 01:26:58;;;;;;;4.18;2.65;;;;;;;;;;5039400;28;20032;-62
2024/01/08 01:29:24;;;;;;;4.60;3.50;;;;;;;;;;5021146;28;20425;-62
2024/01/08 01:31:50;;;;;;;4.65;3.20;;;;;;;;;;5038045;28;20037;-62
2024/01/08 01:34:18;;;;;;;4.05;3.25;;;;;;;;;;5037126;28;20504;-61
2024/01/08 01:36:45;;;;;;;5.75;2.65;;;;;;;;;;5040214;28;20037;-61
2024/01/08 01:39:11;;;;;;;5.60;3.90;;;;;;;;;;5037943;28;20517;-62
2024/01/08 01:41:37;;;;;;;3.95;2.67;;;;;;;;;;5038580;28;20041;-61
2024/01/08 01:44:03;;;;;;;4.13;2.78;;;;;;;;;;5021681;28;20600;-61
2024/01/08 01:46:35;;;;;;;4.90;2.83;;;;;;;;;;5039429;28;20087;-61
2024/01/08 01:49:01;;;;;;;4.20;3.15;;;;;;;;;;5038463;28;20049;-61
2024/01/08 01:51:28;;;;;;;6.22;3.25;;;;;;;;;;5018528;28;20499;-62
2024/01/08 01:53:54;;;;;;;3.78;2.90;;;;;;;;;;5038729;28;20518;-61
2024/01/08 01:56:20;;;;;;;4.40;2.92;;;;;;;;;;5036247;28;20045;-61
2024/01/08 01:58:46;;;;;;;4.43;3.60;;;;;;;;;;5039510;28;20235;-61
2024/01/08 02:01:13;;;;;;;3.60;2.40;;;;;;;;;;5036394;28;20060;-62
2024/01/08 02:03:40;;;;;;;4.50;3.10;;;;;;;;;;5036647;28;20041;-62
2024/01/08 02:06:07;;;;;;;4.45;3.13;;;;;;;;;;5036073;28;20083;-62
2024/01/08 02:08:33;;;;;;;4.30;2.97;;;;;;;;;;5034256;28;20351;-62
2024/01/08 02:10:59;;;;;;;3.67;2.90;;;;;;;;;;5035163;28;20056;-62
2024/01/08 02:13:25;;;;;;;4.30;2.92;;;;;;;;;;5033147;28;20083;-62
2024/01/08 02:15:51;;;;;;;3.17;2.78;;;;;;;;;;5031712;28;20048;-62
2024/01/08 02:18:19;;;;;;;3.80;3.00;;;;;;;;;;5032935;28;20041;-62
2024/01/08 02:20:45;;;;;;;4.32;3.13;;;;;;;;;;5035632;28;20063;-62
2024/01/08 02:23:11;;;;;;;3.55;2.78;;;;;;;;;;5034007;28;20103;-61
2024/01/08 02:25:37;;;;;;;3.47;2.63;;;;;;;;;;5033511;28;20445;-62
2024/01/08 02:28:04;;;;;;;5.05;3.22;;;;;;;;;;5031246;28;20041;-62
2024/01/08 02:30:30;;;;;;;5.90;3.58;;;;;;;;;;5033744;28;20052;-62
2024/01/08 02:32:56;;;;;;;4.15;3.72;;;;;;;;;;5033932;28;20090;-62
2024/01/08 02:35:22;;;;;;;6.50;3.60;;;;;;;;;;5034937;28;20045;-62
2024/01/08 02:37:48;;;;;;;5.18;3.28;;;;;;;;;;5034787;28;20120;-62
2024/01/08 02:40:15;;;;;;;5.03;3.30;;;;;;;;;;5032646;28;20422;-61
2024/01/08 02:42:41;;;;;;;4.38;3.08;;;;;;;;;;5034367;28;20198;-61
2024/01/08 02:45:08;;;;;;;3.13;2.33;;;;;;;;;;5036630;28;20041;-61
2024/01/08 02:47:37;;;;;;;2.88;2.50;;;;;;;;;;5036703;28;20049;-61
2024/01/08 02:50:07;;;;;;;2.90;2.60;;;;;;;;;;5038025;28;20483;-61
2024/01/08 02:52:33;;;;;;;4.53;2.53;;;;;;;;;;5036631;28;20522;-61
2024/01/08 02:54:59;;;;;;;4.07;2.60;;;;;;;;;;5035221;28;20353;-61
2024/01/08 02:57:29;;;;;;;2.47;1.90;;;;;;;;;;5038066;28;20439;-61
2024/01/08 02:59:58;;;;;;;3.47;2.45;;;;;;;;;;5038032;28;20446;-61
2024/01/08 03:02:27;;;;;;;2.00;1.80;;;;;;;;;;5018532;28;20052;-61
2024/01/08 03:04:53;;;;;;;3.20;2.25;;;;;;;;;;5036059;28;20671;-61
2024/01/08 03:07:20;;;;;;;2.17;1.75;;;;;;;;;;5037644;28;20084;-62
2024/01/08 03:09:47;;;;;;;4.50;3.00;;;;;;;;;;5036325;28;20457;-62
2024/01/08 03:12:13;;;;;;;4.43;3.50;;;;;;;;;;5035199;28;20080;-62
2024/01/08 03:14:39;;;;;;;4.25;3.10;;;;;;;;;;5035749;28;20045;-62
2024/01/08 03:17:05;;;;;;;4.40;3.35;;;;;;;;;;5036439;28;20048;-62
2024/01/08 03:19:32;;;;;;;4.55;3.72;;;;;;;;;;5034220;28;20049;-62
2024/01/08 03:22:00;;;;;;;3.05;2.75;;;;;;;;;;5032475;28;20038;-62
2024/01/08 03:24:25;;;;;;;3.25;2.65;;;;;;;;;;5036824;28;20131;-62
2024/01/08 03:26:51;;;;;;;4.80;3.05;;;;;;;;;;5034850;28;20131;-62
2024/01/08 03:29:17;;;;;;;5.07;3.80;;;;;;;;;;5037648;28;20697;-61
2024/01/08 03:31:44;;;;;;;5.05;3.92;;;;;;;;;;5036494;28;20042;-62
2024/01/08 03:34:10;;;;;;;6.28;3.25;;;;;;;;;;5033455;28;20398;-62
2024/01/08 03:36:36;;;;;;;5.07;3.92;;;;;;;;;;5040185;28;20127;-62
2024/01/08 03:39:02;;;;;;;5.00;4.22;;;;;;;;;;5035170;28;20039;-61
2024/01/08 03:41:28;;;;;;;6.47;4.22;;;;;;;;;;5020885;28;20053;-62
2024/01/08 03:43:54;;;;;;;5.60;4.10;;;;;;;;;;5040001;28;20041;-62
2024/01/08 03:46:20;;;;;;;4.78;3.58;;;;;;;;;;5033409;28;20399;-62
2024/01/08 03:48:46;;;;;;;4.38;3.72;;;;;;;;;;5039594;28;20127;-61
2024/01/08 03:51:12;;;;;;;4.68;3.08;;;;;;;;;;5037045;28;20402;-61
2024/01/08 03:53:38;;;;;;;8.18;4.40;;;;;;;;;;5039086;28;20049;-62
2024/01/08 03:56:04;;;;;;;4.70;3.47;;;;;;;;;;5037899;28;20048;-62
2024/01/08 03:58:30;;;;;;;5.72;4.00;;;;;;;;;;5037409;28;20063;-62
2024/01/08 04:00:56;;;;;;;4.80;3.88;;;;;;;;;;5039652;28;20503;-62
2024/01/08 04:03:22;;;;;;;7.15;4.00;;;;;;;;;;5041320;28;20049;-62
2024/01/08 04:05:49;;;;;;;5.60;4.05;;;;;;;;;;5043725;28;20472;-62
2024/01/08 04:08:15;;;;;;;5.68;3.65;;;;;;;;;;5040917;28;20057;-61
2024/01/08 04:10:41;;;;;;;6.85;4.93;;;;;;;;;;5042685;28;20528;-61
2024/01/08 04:13:07;;;;;;;4.55;3.38;;;;;;;;;;5040712;28;20047;-61
2024/01/08 04:15:33;;;;;;;5.90;3.75;;;;;;;;;;5038647;28;20348;-61
2024/01/08 04:17:59;;;;;;;4.28;3.55;;;;;;;;;;5038815;28;20049;-61
2024/01/08 04:20:25;;;;;;;4.22;3.55;;;;;;;;;;5036470;28;20547;-62
2024/01/08 04:22:51;;;;;;;4.43;3.60;;;;;;;;;;5022134;28;20076;-62
2024/01/08 04:25:17;;;;;;;5.10;3.50;;;;;;;;;;5037577;28;20045;-62
2024/01/08 04:27:43;;;;;;;7.40;3.70;;;;;;;;;;5031719;28;20037;-62
2024/01/08 04:30:10;;;;;;;4.70;3.58;;;;;;;;;;5033492;28;20510;-61
2024/01/08 04:32:36;;;;;;;5.32;3.50;;;;;;;;;;5016499;28;20053;-62
2024/01/08 04:35:02;;;;;;;5.00;3.28;;;;;;;;;;5032604;28;20051;-61
2024/01/08 04:37:29;;;;;;;3.92;2.63;;;;;;;;;;5037362;28;20494;-62
2024/01/08 04:39:55;;;;;;;4.80;2.75;;;;;;;;;;5040610;28;20210;-62
2024/01/08 04:42:21;;;;;;;4.88;3.60;;;;;;;;;;5043925;28;20056;-62
2024/01/08 04:44:47;;;;;;;4.40;2.95;;;;;;;;;;5041197;28;20041;-61
2024/01/08 04:47:13;;;;;;;5.05;2.47;;;;;;;;;;5042805;28;20411;-62
2024/01/08 04:49:40;;;;;;;5.13;3.25;;;;;;;;;;5041897;28;20037;-61
2024/01/08 04:52:06;;;;;;;5.18;3.25;;;;;;;;;;5042323;28;20045;-61
2024/01/08 04:54:32;;;;;;;6.10;3.45;;;;;;;;;;5042798;28;20080;-61
2024/01/08 04:56:58;;;;;;;2.92;2.38;;;;;;;;;;5042311;28;20072;-61
2024/01/08 04:59:24;;;;;;;4.65;3.03;;;;;;;;;;5041907;28;20119;-62
2024/01/08 05:01:50;;;;;;;5.70;3.13;;;;;;;;;;5043049;28;20033;-62
2024/01/08 05:04:17;;;;;;;3.47;2.83;;;;;;;;;;5040784;28;20127;-62
2024/01/08 05:06:44;;;;;;;5.82;3.20;;;;;;;;;;5042931;28;20049;-62
2024/01/08 05:09:10;;;;;;;4.10;2.85;;;;;;;;;;5039942;28;20076;-61
2024/01/08 05:11:36;;;;;;;3.78;3.00;;;;;;;;;;5039121;28;20128;-61
2024/01/08 05:14:04;;;;;;;4.07;2.75;;;;;;;;;;5038508;28;20175;-61
2024/01/08 05:16:30;;;;;;;4.68;2.60;;;;;;;;;;5038171;28;20434;-61
2024/01/08 05:18:56;;;;;;;4.32;3.03;;;;;;;;;;5038959;28;20589;-62
2024/01/08 05:21:22;;;;;;;3.80;2.30;;;;;;;;;;5036802;28;20183;-62
2024/01/08 05:23:48;;;;;;;3.03;2.15;;;;;;;;;;5038030;28;20530;-62
2024/01/08 05:26:14;;;;;;;7.47;2.72;;;;;;;;;;5035983;28;20071;-62
2024/01/08 05:28:40;;;;;;;4.25;3.33;;;;;;;;;;5038890;28;20029;-62
2024/01/08 05:31:06;;;;;;;3.10;2.50;;;;;;;;;;5030560;28;20119;-62
2024/01/08 05:33:32;;;;;;;3.28;2.55;;;;;;;;;;5034738;28;20041;-61
2024/01/08 05:35:58;;;;;;;5.63;2.95;;;;;;;;;;5037140;28;20051;-61
2024/01/08 05:38:25;;;;;;;3.58;2.90;;;;;;;;;;5034351;28;20047;-61
2024/01/08 05:40:51;;;;;;;3.50;2.60;;;;;;;;;;5038528;28;20387;-61
2024/01/08 05:43:17;;;;;;;3.85;2.35;;;;;;;;;;5037981;28;20113;-61
2024/01/08 05:45:43;;;;;;;2.78;2.17;;;;;;;;;;5038846;28;20302;-62
2024/01/08 05:48:09;;;;;;;2.78;2.10;;;;;;;;;;5040779;28;20049;-61
2024/01/08 05:50:35;;;;;;;4.47;2.35;;;;;;;;;;5038608;28;20036;-61
2024/01/08 05:53:02;;;;;;;3.20;2.22;;;;;;;;;;5038154;28;20103;-61
2024/01/08 05:55:28;;;;;;;2.90;2.60;;;;;;;;;;5036330;28;20060;-61
2024/01/08 05:57:54;;;;;;;3.55;2.80;;;;;;;;;;5044123;28;20041;-61
2024/01/08 06:00:20;;;;;;;3.17;2.38;;;;;;;;;;5040098;28;20040;-61
2024/01/08 06:02:46;;;;;;;4.03;2.38;;;;;;;;;;5032684;28;20112;-61
2024/01/08 06:05:12;;;;;;;3.28;1.85;;;;;;;;;;5037763;28;20075;-61
2024/01/08 06:07:38;;;;;;;4.22;2.42;;;;;;;;;;5019389;28;20487;-61
2024/01/08 06:10:04;;;;;;;2.70;2.03;;;;;;;;;;5036761;28;20040;-61
2024/01/08 06:12:31;;;;;;;2.75;2.08;;;;;;;;;;5034770;28;20044;-61
2024/01/08 06:14:57;;;;;;;2.15;1.90;;;;;;;;;;5033192;28;20718;-61
2024/01/08 06:17:23;;;;;;;3.47;1.98;;;;;;;;;;5040560;28;20095;-61
2024/01/08 06:19:49;;;;;;;4.05;2.20;;;;;;;;;;5039726;28;20049;-61
2024/01/08 06:22:15;;;;;;;4.32;2.08;;;;;;;;;;5036961;28;20047;-62
2024/01/08 06:24:41;;;;;;;6.05;2.88;;;;;;;;;;5044655;28;20049;-61
2024/01/08 06:27:07;;;;;;;3.20;2.03;;;;;;;;;;5043791;28;20076;-61
2024/01/08 06:29:34;;;;;;;2.60;1.77;;;;;;;;;;5044937;28;20068;-61
2024/01/08 06:32:00;;;;;;;3.40;2.25;;;;;;;;;;5045941;28;20394;-61
2024/01/08 06:34:26;;;;;;;2.53;2.10;;;;;;;;;;5039126;28;20045;-61
2024/01/08 06:36:52;;;;;;;1.83;1.48;;;;;;;;;;5014604;28;20141;-61
2024/01/08 06:39:18;;;;;;;2.05;1.73;;;;;;;;;;5024823;28;20124;-61
2024/01/08 06:41:44;;;;;;;2.53;1.83;;;;;;;;;;5035726;28;20037;-60
2024/01/08 06:44:10;;;;;;;4.28;1.70;;;;;;;;;;5043492;28;20068;-61
2024/01/08 06:46:36;;;;;;;2.03;1.70;;;;;;;;;;5043947;28;20461;-60
2024/01/08 06:49:02;;;;;;;1.60;1.40;;;;;;;;;;5039604;28;20112;-61
2024/01/08 06:51:28;;;;;;;1.73;1.42;;;;;;;;;;5041812;28;20052;-61
2024/01/08 06:53:54;;;;;;;2.33;1.60;;;;;;;;;;5021694;28;20036;-61
2024/01/08 06:56:20;;;;;;;1.95;1.67;;;;;;;;;;5040888;28;20545;-60
2024/01/08 06:58:47;;;;;;;4.00;1.58;;;;;;;;;;5045407;28;20072;-61
2024/01/08 07:01:15;;;;;;;2.55;1.55;;;;;;;;;;5038011;28;20045;-61
2024/01/08 07:03:42;;;;;;;2.75;1.58;;;;;;;;;;5035321;28;20060;-60
2024/01/08 07:06:08;;;;;;;2.28;1.52;;;;;;;;;;5044459;28;20033;-60
2024/01/08 07:08:34;;;;;;;1.75;1.17;;;;;;;;;;5042272;28;20107;-61
2024/01/08 07:11:00;;;;;;;3.42;2.25;;;;;;;;;;5044075;28;20045;-61
2024/01/08 07:13:26;;;;;;;3.03;1.90;;;;;;;;;;5045143;28;20122;-61
2024/01/08 07:15:52;;;;;;;3.67;2.03;;;;;;;;;;5025438;28;20049;-61
2024/01/08 07:18:18;;;;;;;2.75;2.13;;;;;;;;;;5026124;28;20086;-61
2024/01/08 07:20:44;;;;;;;2.17;1.67;;;;;;;;;;5044890;28;20041;-60
2024/01/08 07:23:13;;;;;;;3.45;1.98;;;;;;;;;;5044472;28;20041;-61
2024/01/08 07:25:39;;;;;;;3.00;1.80;;;;;;;;;;5039298;28;20120;-61
2024/01/08 07:28:06;;;;;;;3.58;1.77;;;;;;;;;;5045102;28;20059;-61
2024/01/08 07:30:32;;;;;;;2.05;1.73;;;;;;;;;;5044621;28;20139;-62
2024/01/08 07:32:58;;;;;;;2.45;1.63;;;;;;;;;;5044562;28;20334;-61
2024/01/08 07:35:24;;;;;;;1.73;1.50;;;;;;;;;;5045262;28;20033;-61
2024/01/08 07:37:55;;;;;;;3.97;2.30;;;;;;;;;;5047183;28;20036;-61
2024/01/08 07:40:22;;;;;;;5.40;2.33;;;;;;;;;;5048649;28;20067;-61
2024/01/08 07:42:47;;;;;;;4.05;2.22;;;;;;;;;;5048917;28;20411;-61
2024/01/08 07:45:13;;;;;;;4.18;2.08;;;;;;;;;;5030005;28;20610;-60
2024/01/08 07:47:39;;;;;;;3.78;2.08;;;;;;;;;;5049178;28;20036;-60
2024/01/08 07:50:07;;;;;;;3.78;2.10;;;;;;;;;;5048811;28;20414;-61
2024/01/08 07:52:33;;;;;;;3.90;2.80;;;;;;;;;;5048131;28;20049;-61
2024/01/08 07:54:59;;;;;;;2.78;2.03;;;;;;;;;;5048386;28;20082;-61
2024/01/08 07:57:25;;;;;;;4.55;2.17;;;;;;;;;;5047280;28;20120;-61
2024/01/08 07:59:51;;;;;;;4.80;2.20;;;;;;;;;;5041007;28;20051;-60
2024/01/08 08:02:17;;;;;;;4.80;2.35;;;;;;;;;;5038982;28;20163;-60
2024/01/08 08:04:43;;;;;;;4.90;2.72;;;;;;;;;;5041417;28;20038;-61
2024/01/08 08:07:09;;;;;;;7.70;2.55;;;;;;;;;;5037649;28;20621;-61
2024/01/08 08:09:35;;;;;;;4.25;2.45;;;;;;;;;;5037683;28;20053;-61
2024/01/08 08:12:01;;;;;;;4.32;2.45;;;;;;;;;;5038886;28;20037;-61
2024/01/08 08:14:27;;;;;;;3.45;1.92;;;;;;;;;;5034449;28;20052;-61
2024/01/08 08:16:54;;;;;;;5.95;3.00;;;;;;;;;;5039667;28;20064;-61
2024/01/08 08:19:20;;;;;;;6.53;3.08;;;;;;;;;;5024857;28;20075;-61
2024/01/08 08:21:46;;;;;;;5.25;2.35;;;;;;;;;;5047903;28;20072;-60
2024/01/08 08:24:12;;;;;;;3.33;1.73;;;;;;;;;;5048167;28;20049;-60
2024/01/08 08:26:38;;;;;;;4.57;2.00;;;;;;;;;;5047896;28;20479;-60
2024/01/08 08:29:04;;;;;;;5.82;2.15;;;;;;;;;;5048054;28;20084;-60
2024/01/08 08:31:30;;;;;;;4.25;2.08;;;;;;;;;;5047898;28;20180;-60
2024/01/08 08:33:56;;;;;;;3.88;2.35;;;;;;;;;;5047326;28;20041;-60
2024/01/08 08:36:22;;;;;;;4.28;2.40;;;;;;;;;;5046998;28;20418;-60
2024/01/08 08:38:48;;;;;;;4.25;2.28;;;;;;;;;;5034879;28;20089;-57
2024/01/08 08:41:14;;;;;;;2.85;1.65;;;;;;;;;;5046772;28;20079;-60
2024/01/08 08:43:40;;;;;;;4.78;2.20;;;;;;;;;;5048888;28;20044;-59
2024/01/08 08:46:06;;;;;;;2.97;2.13;;;;;;;;;;5046008;28;20084;-61
2024/01/08 08:48:32;;;;;;;2.65;1.73;;;;;;;;;;5047265;28;20071;-61
2024/01/08 08:50:58;;;;;;;3.88;1.80;;;;;;;;;;5048502;28;20383;-62
2024/01/08 08:53:24;;;;;;;5.15;1.58;;;;;;;;;;5048706;28;20033;-62
2024/01/08 08:55:52;;;;;;;3.17;2.08;;;;;;;;;;5047925;28;20052;-62
2024/01/08 08:58:17;;;;;;;3.10;2.05;;;;;;;;;;5048355;28;20486;-62
2024/01/08 09:00:43;;;;;;;4.88;2.25;;;;;;;;;;5048315;28;20039;-62
2024/01/08 09:03:09;;;;;;;2.58;2.00;;;;;;;;;;5045228;28;20041;-62
2024/01/08 09:05:36;;;;;;;3.90;1.90;;;;;;;;;;5046506;28;20041;-62
2024/01/08 09:08:02;;;;;;;3.85;1.60;;;;;;;;;;5048064;28;20053;-62
2024/01/08 09:10:28;;;;;;;4.22;1.40;;;;;;;;;;5047453;28;20057;-62
2024/01/08 09:12:54;;;;;;;2.65;1.30;;;;;;;;;;5045655;28;20052;-62
2024/01/08 09:15:20;;;;;;;3.03;1.98;;;;;;;;;;5048300;28;20055;-62
2024/01/08 09:17:46;;;;;;;3.85;2.45;;;;;;;;;;5047401;28;20051;-62
2024/01/08 09:20:12;;;;;;;3.92;1.75;;;;;;;;;;5047120;28;20052;-62
2024/01/08 09:22:38;;;;;;;5.38;1.95;;;;;;;;;;5046743;28;20041;-62
2024/01/08 09:25:06;;;;;;;2.25;1.77;;;;;;;;;;5043733;28;20056;-62
2024/01/08 09:27:32;;;;;;;2.33;1.88;;;;;;;;;;5045248;28;20121;-62
2024/01/08 09:29:58;;;;;;;3.08;1.90;;;;;;;;;;5047952;28;20123;-62
2024/01/08 09:32:24;;;;;;;3.20;1.75;;;;;;;;;;5048208;28;20037;-62
2024/01/08 09:34:51;;;;;;;2.55;2.13;;;;;;;;;;5046721;28;20564;-62
2024/01/08 09:37:19;;;;;;;5.28;2.10;;;;;;;;;;5046370;28;20045;-62
2024/01/08 09:39:45;;;;;;;3.47;2.33;;;;;;;;;;5046475;28;20060;-62
2024/01/08 09:42:11;;;;;;;1.98;1.55;;;;;;;;;;5046735;28;20425;-62
2024/01/08 09:44:38;;;;;;;6.00;2.20;;;;;;;;;;5049557;28;20037;-62
2024/01/08 09:47:05;;;;;;;4.22;2.00;;;;;;;;;;5041497;28;20052;-62
2024/01/08 09:49:32;;;;;;;1.95;1.60;;;;;;;;;;5040314;28;20044;-62
2024/01/08 09:51:59;;;;;;;2.78;1.50;;;;;;;;;;5036905;28;20047;-63
2024/01/08 09:54:26;;;;;;;4.05;2.00;;;;;;;;;;5039559;28;20064;-63
2024/01/08 09:56:53;;;;;;;2.63;1.40;;;;;;;;;;5043408;28;20449;-63
2024/01/08 09:59:19;;;;;;;5.07;1.67;;;;;;;;;;5043528;28;20474;-63
2024/01/08 10:01:45;;;;;;;4.28;1.95;;;;;;;;;;5043497;28;20064;-63
2024/01/08 10:04:11;;;;;;;4.45;1.70;;;;;;;;;;5043293;28;20490;-63
2024/01/08 10:06:39;;;;;;;3.30;1.73;;;;;;;;;;5039784;28;20614;-63
2024/01/08 10:09:05;;;;;;;4.07;2.15;;;;;;;;;;5045644;28;20758;-63
2024/01/08 10:11:31;;;;;;;2.70;2.00;;;;;;;;;;5040266;28;20041;-63
2024/01/08 10:13:57;;;;;;;3.95;2.15;;;;;;;;;;5043381;28;20043;-63
2024/01/08 10:16:27;;;;;;;3.50;2.20;;;;;;;;;;5042428;28;20128;-63
2024/01/08 10:18:53;;;;;;;3.30;1.92;;;;;;;;;;5039801;28;20198;-63
2024/01/08 10:21:19;;;;;;;5.65;2.10;;;;;;;;;;5042899;28;20151;-63
2024/01/08 10:23:46;;;;;;;3.10;2.03;;;;;;;;;;5040229;28;21020;-63
2024/01/08 10:26:14;;;;;;;4.00;2.03;;;;;;;;;;5041239;28;20041;-63
2024/01/08 10:28:40;;;;;;;4.47;2.45;;;;;;;;;;5043118;28;20136;-63
2024/01/08 10:31:08;;;;;;;2.90;1.98;;;;;;;;;;5040131;28;20572;-63
2024/01/08 10:33:34;;;;;;;4.43;2.13;;;;;;;;;;5042036;28;20105;-63
2024/01/08 10:36:03;;;;;;;3.92;2.05;;;;;;;;;;5041220;28;20048;-63
2024/01/08 10:38:31;;;;;;;3.67;1.98;;;;;;;;;;5042051;28;20075;-63
2024/01/08 10:40:57;;;;;;;3.13;1.60;;;;;;;;;;5030364;28;20052;-62
2024/01/08 10:43:24;;;;;;;3.42;2.38;;;;;;;;;;5032354;28;20168;-63
2024/01/08 10:45:56;;;;;;;2.13;1.60;;;;;;;;;;5042556;28;20394;-63
2024/01/08 10:48:22;;;;;;;8.77;2.70;;;;;;;;;;5032214;28;20127;-63
2024/01/08 10:50:51;;;;;;;5.85;2.88;;;;;;;;;;5045065;28;20036;-62
2024/01/08 10:53:28;;;;;;;5.25;2.20;;;;;;;;;;5041980;28;20418;-63
2024/01/08 10:55:54;;;;;;;4.63;1.83;;;;;;;;;;5037249;28;20072;-63
2024/01/08 10:58:26;;;;;;;5.28;1.92;;;;;;;;;;5024671;28;20048;-63
2024/01/08 11:00:52;;;;;;;4.22;1.58;;;;;;;;;;5043794;28;20043;-62
2024/01/08 11:03:20;;;;;;;3.55;2.00;;;;;;;;;;5037854;28;20033;-62
2024/01/08 11:05:51;;;;;;;3.15;1.83;;;;;;;;;;5044544;28;20426;-62
2024/01/08 11:08:19;;;;;;;4.28;2.00;;;;;;;;;;5044423;28;20079;-62
2024/01/08 11:10:46;;;;;;;2.28;1.60;;;;;;;;;;5044755;28;20128;-62
2024/01/08 11:13:13;;;;;;;2.58;2.03;;;;;;;;;;5042935;28;20418;-62
2024/01/08 11:15:40;;;;;;;2.88;1.98;;;;;;;;;;5044831;28;20052;-62
2024/01/08 11:18:06;;;;;;;3.88;1.90;;;;;;;;;;5043996;28;20087;-61
2024/01/08 11:20:43;;;;;;;3.92;1.95;;;;;;;;;;5027073;28;20049;-62
2024/01/08 11:23:27;;;;;;;2.70;1.80;;;;;;;;;;5023968;28;20123;-62
2024/01/08 11:25:54;;;;;;;2.17;1.80;;;;;;;;;;5027478;28;20049;-62
2024/01/08 11:28:20;;;;;;;2.65;1.90;;;;;;;;;;5034702;28;20044;-62
2024/01/08 11:30:48;;;;;;;4.05;2.28;;;;;;;;;;5032533;28;20042;-62
2024/01/08 11:33:32;;;;;;;2.28;1.77;;;;;;;;;;5034922;28;20047;-63
2024/01/08 11:35:59;;;;;;;4.57;2.00;;;;;;;;;;5026491;28;20493;-63
2024/01/08 11:38:29;;;;;;;2.53;1.90;;;;;;;;;;5032042;28;20519;-63
2024/01/08 11:40:57;;;;;;;3.05;2.20;;;;;;;;;;5031555;28;20037;-62
2024/01/08 11:43:23;;;;;;;3.88;2.60;;;;;;;;;;5033006;28;20392;-62
2024/01/08 11:45:49;;;;;;;4.53;2.17;;;;;;;;;;5032875;28;20415;-62
2024/01/08 11:48:15;;;;;;;5.97;2.20;;;;;;;;;;5036131;28;20041;-62
2024/01/08 11:50:42;;;;;;;3.78;2.47;;;;;;;;;;5032107;28;20163;-62
2024/01/08 11:53:12;;;;;;;2.53;1.95;;;;;;;;;;5036823;28;20045;-62
2024/01/08 11:55:40;;;;;;;4.35;1.95;;;;;;;;;;5031239;28;20041;-62
2024/01/08 11:58:06;;;;;;;4.43;2.35;;;;;;;;;;5031449;28;20387;-63
2024/01/08 12:00:32;;;;;;;3.40;1.85;;;;;;;;;;5035556;28;20044;-63
2024/01/08 12:03:02;;;;;;;3.85;2.25;;;;;;;;;;5036336;28;20033;-63
2024/01/08 12:05:28;;;;;;;4.00;1.90;;;;;;;;;;5037189;28;20537;-63
2024/01/08 12:07:55;;;;;;;2.65;2.17;;;;;;;;;;5035103;28;20498;-63
2024/01/08 12:10:21;;;;;;;4.18;2.30;;;;;;;;;;5036919;28;20677;-64
2024/01/08 12:12:47;;;;;;;2.92;2.13;;;;;;;;;;5033027;28;20499;-62
2024/01/08 12:15:13;;;;;;;4.00;1.92;;;;;;;;;;5034768;28;20180;-58
2024/01/08 12:17:39;;;;;;;2.40;2.20;;;;;;;;;;5040611;28;20298;-67
2024/01/08 12:20:06;;;;;;;2.22;1.58;;;;;;;;;;5026871;28;20040;-61
2024/01/08 12:22:33;;;;;;;2.97;1.85;;;;;;;;;;5041179;28;20048;-62
2024/01/08 12:24:59;;;;;;;3.60;1.52;;;;;;;;;;5041491;28;20483;-62
2024/01/08 12:27:27;;;;;;;3.30;1.70;;;;;;;;;;5042573;28;20376;-62
2024/01/08 12:29:54;;;;;;;2.75;1.60;;;;;;;;;;5042065;28;20041;-61
2024/01/08 12:32:21;;;;;;;6.10;2.10;;;;;;;;;;5042855;28;20048;-61
2024/01/08 12:34:47;;;;;;;4.68;2.50;;;;;;;;;;5044938;28;20325;-62
2024/01/08 12:37:15;;;;;;;4.40;3.22;;;;;;;;;;5044749;28;20110;-62
2024/01/08 12:39:41;;;;;;;4.05;2.22;;;;;;;;;;5041675;28;20483;-62
2024/01/08 12:42:10;;;;;;;2.47;2.25;;;;;;;;;;5042367;28;20041;-62
2024/01/08 12:44:37;;;;;;;3.00;1.95;;;;;;;;;;5041064;28;20063;-62
2024/01/08 12:47:04;;;;;;;3.67;2.10;;;;;;;;;;5025724;28;20459;-62
2024/01/08 12:49:31;;;;;;;2.35;1.73;;;;;;;;;;5039895;28;20049;-62
2024/01/08 12:52:00;;;;;;;3.10;1.38;;;;;;;;;;5043871;28;20459;-62
2024/01/08 12:54:26;;;;;;;3.70;2.40;;;;;;;;;;5037077;28;20048;-62
2024/01/08 12:56:52;;;;;;;3.60;2.53;;;;;;;;;;5045603;28;20044;-62
2024/01/08 12:59:18;;;;;;;3.38;2.15;;;;;;;;;;5045335;28;20110;-62
2024/01/08 13:01:44;;;;;;;1.90;1.60;;;;;;;;;;5042785;28;20033;-63
2024/01/08 13:04:12;;;;;;;4.53;2.17;;;;;;;;;;5038968;28;20033;-62
2024/01/08 13:06:40;;;;;;;4.38;2.40;;;;;;;;;;5036864;28;20056;-63
2024/01/08 13:09:07;;;;;;;4.45;1.40;;;;;;;;;;5038722;28;20538;-62
2024/01/08 13:11:33;;;;;;;2.83;1.83;;;;;;;;;;5036832;28;20124;-61
2024/01/08 13:13:59;;;;;;;1.92;1.73;;;;;;;;;;5039823;28;20045;-62
2024/01/08 13:16:25;;;;;;;2.42;1.98;;;;;;;;;;5042524;28;20040;-62
2024/01/08 13:18:51;;;;;;;2.58;2.33;;;;;;;;;;5038823;28;20048;-62
2024/01/08 13:21:17;;;;;;;3.00;1.90;;;;;;;;;;5028167;28;20055;-62
2024/01/08 13:23:45;;;;;;;3.67;2.30;;;;;;;;;;5045323;28;20448;-62
2024/01/08 13:26:12;;;;;;;3.17;2.05;;;;;;;;;;5045926;28;20550;-62
2024/01/08 13:28:40;;;;;;;3.70;2.10;;;;;;;;;;5046400;28;20059;-62
2024/01/08 13:31:06;;;;;;;2.20;1.85;;;;;;;;;;5045468;28;20044;-63
2024/01/08 13:33:32;;;;;;;2.80;1.90;;;;;;;;;;5045795;28;20580;-62
2024/01/08 13:35:59;;;;;;;3.67;2.03;;;;;;;;;;5045985;28;20277;-62
2024/01/08 13:38:25;;;;;;;4.00;1.90;;;;;;;;;;5046550;28;20525;-62
2024/01/08 13:40:57;;;;;;;3.08;1.80;;;;;;;;;;5046785;28;20048;-62
2024/01/08 13:43:25;;;;;;;3.72;2.45;;;;;;;;;;5020064;28;20041;-62
2024/01/08 13:45:50;;;;;;;3.33;2.00;;;;;;;;;;5046641;28;20494;-62
2024/01/08 13:48:18;;;;;;;3.15;2.30;;;;;;;;;;5046406;28;20047;-62
2024/01/08 13:50:44;;;;;;;4.78;3.00;;;;;;;;;;5028206;28;20063;-62
2024/01/08 13:53:10;;;;;;;6.60;2.55;;;;;;;;;;5046666;28;20483;-62
2024/01/08 13:55:36;;;;;;;2.22;1.67;;;;;;;;;;5038024;28;20032;-61
2024/01/08 13:58:04;;;;;;;5.28;3.45;;;;;;;;;;5035625;28;20037;-61
2024/01/08 14:00:30;;;;;;;6.55;3.28;;;;;;;;;;5038499;28;20318;-61
2024/01/08 14:02:58;;;;;;;4.07;2.55;;;;;;;;;;5038216;28;20096;-62
2024/01/08 14:05:25;;;;;;;4.40;2.25;;;;;;;;;;5036320;28;20053;-62
2024/01/08 14:07:51;;;;;;;3.42;2.30;;;;;;;;;;5037747;28;20143;-60
2024/01/08 14:10:17;;;;;;;4.10;2.38;;;;;;;;;;5038878;28;20063;-61
2024/01/08 14:12:43;;;;;;;4.07;2.08;;;;;;;;;;5038886;28;20542;-61
2024/01/08 14:15:12;;;;;;;6.15;2.47;;;;;;;;;;5017676;28;20132;-61
2024/01/08 14:17:41;;;;;;;3.58;2.42;;;;;;;;;;5037863;28;20339;-61
2024/01/08 14:20:08;;;;;;;2.80;2.40;;;;;;;;;;5039437;28;20470;-61
2024/01/08 14:22:34;;;;;;;3.67;2.45;;;;;;;;;;5041150;28;20050;-61
2024/01/08 14:25:00;;;;;;;3.97;2.25;;;;;;;;;;5029131;28;20436;-61
2024/01/08 14:27:28;;;;;;;3.67;2.42;;;;;;;;;;5038431;28;20060;-61
2024/01/08 14:29:54;;;;;;;3.58;2.08;;;;;;;;;;5029686;28;20053;-61
2024/01/08 14:32:20;;;;;;;5.13;3.22;;;;;;;;;;5032268;28;20051;-61
2024/01/08 14:34:46;;;;;;;5.00;2.05;;;;;;;;;;5030256;28;20047;-61
2024/01/08 14:37:12;;;;;;;2.35;1.88;;;;;;;;;;5032248;28;20043;-62
2024/01/08 14:39:38;;;;;;;4.38;2.60;;;;;;;;;;5040135;28;20431;-61